Aérodrome :
LOGIN :

S'inscrire | Disclaimer

   EN    FR    IT 

 










Légende :    VFR   VFR Marginal   IFR   IFR Intensif   IFR Très Intensif
Visi : 
Plafond : 
>= 8 km
>= 3000ft
5 à 8 km
1000 à 3000 ft
1500m à 5 km
500 à 1000 ft
800 à 1500m
200 à 500 ft
< 800m
< 200 ft
Symboles :   Orages  Brouillard  Fortes neiges  Fortes précipitations  Vent > 20 kt
SIGMETs :   Divers  Orages  Givrage  Turbulence  Onde Orograph.  Cendres Volcan.







- Altitude de l'aérodrome : 726 ft
- Code IATA : DIJ
- Voir les cartes d'approche


LFSD - Dijon

DERNIER METAR :
  • 191630Z AUTO 21007KT 160V240 CAVOK 29/11 Q1014

METARs EXPIRÉS :
  • 191600Z AUTO VRB02KT CAVOK 29/12 Q1014
  • 191530Z AUTO VRB04KT CAVOK 29/12 Q1015
  • 191500Z AUTO VRB04KT CAVOK 29/12 Q1015
  • 191430Z AUTO 18005KT 140V240 CAVOK 29/12 Q1015
  • 191400Z AUTO 23005KT 170V320 CAVOK 29/12 Q1015

Prévision TAF périmée.
Pas de NOTAMs connus pour ce terrain.



MET'MAP, la Météo Aéronautique d'un coup d'oeil ! - Copyright ORBIFLY Décembre 2007 - Disclaimer

ORBIFLY MET'MAP TEAM :

Programmation & Développement : Alexandra Zaïnal
Conception & Développement : Baudouin d'Aumeries
Co-Programmation & Développement : Marc-Olivier Méhu
Soutien technique & logistique : Manuel Goepfert

Contact : metmap@orbifly.com




SOURCES & CREDITS :

   NOAA